Terminal Aerodrome Forecast
Issued by NWS

Current Version | Previous Version | Text Only | Print | Product List | Glossary On
Versions: 1 2 3 4 5 6 7 8 9 10 11 12 13
000
FTUS44 KLIX 302329
TAFGPT
TAF
KGPT 302329Z 3100/3124 VRB05KT P6SM VCTS SCT040CB BKN150
     FM310300 36004KT P6SM BKN250
     FM311500 02008KT P6SM VCTS SCT040CB=

USA.gov is the U.S. government's official web portal to all federal, state and local government web resources and services.